sensor_id;sensor_type;location;lat;lon;timestamp;P1;durP1;ratioP1;P2;durP2;ratioP2
64543;SDS011;50936;51.660;5.616;2023-09-08T00:00:00;9.05;;;6.65;;
64543;SDS011;50936;51.660;5.616;2023-09-08T00:02:49;9.60;;;6.75;;
64543;SDS011;50936;51.660;5.616;2023-09-08T00:05:37;11.15;;;6.95;;
64543;SDS011;50936;51.660;5.616;2023-09-08T00:08:24;10.25;;;6.78;;
64543;SDS011;50936;51.660;5.616;2023-09-08T00:11:12;10.18;;;6.50;;
64543;SDS011;50936;51.660;5.616;2023-09-08T00:13:59;10.13;;;6.50;;
64543;SDS011;50936;51.660;5.616;2023-09-08T00:16:46;9.05;;;6.07;;
64543;SDS011;50936;51.660;5.616;2023-09-08T00:19:34;8.10;;;6.40;;
64543;SDS011;50936;51.660;5.616;2023-09-08T00:22:21;9.00;;;6.22;;
64543;SDS011;50936;51.660;5.616;2023-09-08T00:25:08;9.82;;;6.07;;
64543;SDS011;50936;51.660;5.616;2023-09-08T00:27:56;9.07;;;6.53;;
64543;SDS011;50936;51.660;5.616;2023-09-08T00:30:43;9.38;;;6.90;;
64543;SDS011;50936;51.660;5.616;2023-09-08T00:33:30;8.63;;;6.28;;
64543;SDS011;50936;51.660;5.616;2023-09-08T00:36:18;9.73;;;6.63;;
64543;SDS011;50936;51.660;5.616;2023-09-08T00:39:05;8.98;;;6.18;;
64543;SDS011;50936;51.660;5.616;2023-09-08T00:41:53;8.70;;;6.65;;
64543;SDS011;50936;51.660;5.616;2023-09-08T00:44:40;10.27;;;6.60;;
64543;SDS011;50936;51.660;5.616;2023-09-08T00:47:28;9.68;;;6.40;;
64543;SDS011;50936;51.660;5.616;2023-09-08T00:50:15;10.13;;;5.93;;
64543;SDS011;50936;51.660;5.616;2023-09-08T00:53:03;8.82;;;6.57;;
64543;SDS011;50936;51.660;5.616;2023-09-08T00:55:52;8.73;;;6.22;;
64543;SDS011;50936;51.660;5.616;2023-09-08T00:58:40;8.77;;;6.28;;
64543;SDS011;50936;51.660;5.616;2023-09-08T01:01:28;8.68;;;6.45;;
64543;SDS011;50936;51.660;5.616;2023-09-08T01:04:15;11.07;;;6.65;;
64543;SDS011;50936;51.660;5.616;2023-09-08T01:07:03;9.18;;;6.85;;
64543;SDS011;50936;51.660;5.616;2023-09-08T01:09:51;8.18;;;6.30;;
64543;SDS011;50936;51.660;5.616;2023-09-08T01:12:39;10.73;;;6.68;;
64543;SDS011;50936;51.660;5.616;2023-09-08T01:15:26;10.27;;;6.65;;
64543;SDS011;50936;51.660;5.616;2023-09-08T01:18:14;11.02;;;6.78;;
64543;SDS011;50936;51.660;5.616;2023-09-08T01:28:00;8.52;;;6.13;;
64543;SDS011;50936;51.660;5.616;2023-09-08T01:30:49;8.68;;;6.75;;
64543;SDS011;50936;51.660;5.616;2023-09-08T01:33:38;8.88;;;6.45;;
64543;SDS011;50936;51.660;5.616;2023-09-08T01:36:27;11.40;;;6.65;;
64543;SDS011;50936;51.660;5.616;2023-09-08T01:39:14;8.65;;;6.63;;
64543;SDS011;50936;51.660;5.616;2023-09-08T01:42:01;9.40;;;7.13;;
64543;SDS011;50936;51.660;5.616;2023-09-08T01:44:48;9.63;;;6.53;;
64543;SDS011;50936;51.660;5.616;2023-09-08T01:47:36;10.82;;;7.13;;
64543;SDS011;50936;51.660;5.616;2023-09-08T01:50:24;10.18;;;6.47;;
64543;SDS011;50936;51.660;5.616;2023-09-08T01:53:11;9.35;;;6.88;;
64543;SDS011;50936;51.660;5.616;2023-09-08T01:55:59;8.00;;;6.38;;
64543;SDS011;50936;51.660;5.616;2023-09-08T01:58:46;8.48;;;6.35;;
64543;SDS011;50936;51.660;5.616;2023-09-08T02:01:33;9.02;;;6.90;;
64543;SDS011;50936;51.660;5.616;2023-09-08T02:04:20;10.43;;;7.20;;
64543;SDS011;50936;51.660;5.616;2023-09-08T02:07:08;9.20;;;6.82;;
64543;SDS011;50936;51.660;5.616;2023-09-08T02:09:55;8.40;;;6.63;;
64543;SDS011;50936;51.660;5.616;2023-09-08T02:12:42;9.13;;;6.68;;
64543;SDS011;50936;51.660;5.616;2023-09-08T02:15:29;8.80;;;6.82;;
64543;SDS011;50936;51.660;5.616;2023-09-08T02:18:17;9.02;;;6.63;;
64543;SDS011;50936;51.660;5.616;2023-09-08T02:21:04;9.13;;;6.80;;
64543;SDS011;50936;51.660;5.616;2023-09-08T02:23:51;10.57;;;6.75;;
64543;SDS011;50936;51.660;5.616;2023-09-08T02:26:39;9.00;;;6.50;;
64543;SDS011;50936;51.660;5.616;2023-09-08T02:29:27;8.90;;;6.47;;
64543;SDS011;50936;51.660;5.616;2023-09-08T02:32:15;10.07;;;6.45;;
64543;SDS011;50936;51.660;5.616;2023-09-08T02:35:02;8.90;;;6.30;;
64543;SDS011;50936;51.660;5.616;2023-09-08T02:37:50;10.45;;;6.53;;
64543;SDS011;50936;51.660;5.616;2023-09-08T02:40:38;8.80;;;6.50;;
64543;SDS011;50936;51.660;5.616;2023-09-08T02:43:26;8.55;;;6.05;;
64543;SDS011;50936;51.660;5.616;2023-09-08T02:46:14;8.85;;;6.20;;
64543;SDS011;50936;51.660;5.616;2023-09-08T02:49:02;9.93;;;6.80;;
64543;SDS011;50936;51.660;5.616;2023-09-08T02:51:50;11.60;;;6.20;;
64543;SDS011;50936;51.660;5.616;2023-09-08T02:54:37;8.57;;;6.38;;
64543;SDS011;50936;51.660;5.616;2023-09-08T02:57:24;10.63;;;6.68;;
64543;SDS011;50936;51.660;5.616;2023-09-08T03:00:12;9.90;;;6.55;;
64543;SDS011;50936;51.660;5.616;2023-09-08T03:03:00;10.95;;;6.85;;
64543;SDS011;50936;51.660;5.616;2023-09-08T03:05:47;8.73;;;6.70;;
64543;SDS011;50936;51.660;5.616;2023-09-08T03:08:35;8.07;;;6.30;;
64543;SDS011;50936;51.660;5.616;2023-09-08T03:11:23;9.52;;;6.45;;
64543;SDS011;50936;51.660;5.616;2023-09-08T03:14:11;10.80;;;6.65;;
64543;SDS011;50936;51.660;5.616;2023-09-08T03:16:58;9.95;;;6.60;;
64543;SDS011;50936;51.660;5.616;2023-09-08T03:19:45;11.77;;;6.90;;
64543;SDS011;50936;51.660;5.616;2023-09-08T03:22:33;8.45;;;6.53;;
64543;SDS011;50936;51.660;5.616;2023-09-08T03:25:20;9.05;;;6.70;;
64543;SDS011;50936;51.660;5.616;2023-09-08T03:28:08;10.00;;;6.50;;
64543;SDS011;50936;51.660;5.616;2023-09-08T03:30:55;10.32;;;6.65;;
64543;SDS011;50936;51.660;5.616;2023-09-08T03:33:42;8.77;;;6.55;;
64543;SDS011;50936;51.660;5.616;2023-09-08T03:36:30;9.07;;;6.32;;
64543;SDS011;50936;51.660;5.616;2023-09-08T03:39:22;8.77;;;6.43;;
64543;SDS011;50936;51.660;5.616;2023-09-08T03:42:09;10.13;;;6.25;;
64543;SDS011;50936;51.660;5.616;2023-09-08T03:44:57;11.20;;;6.28;;
64543;SDS011;50936;51.660;5.616;2023-09-08T03:47:44;9.15;;;6.40;;
64543;SDS011;50936;51.660;5.616;2023-09-08T03:50:31;9.82;;;6.07;;
64543;SDS011;50936;51.660;5.616;2023-09-08T03:53:19;8.65;;;6.10;;
64543;SDS011;50936;51.660;5.616;2023-09-08T03:56:06;9.00;;;5.80;;
64543;SDS011;50936;51.660;5.616;2023-09-08T03:58:54;8.23;;;5.95;;
64543;SDS011;50936;51.660;5.616;2023-09-08T04:01:41;9.30;;;6.95;;
64543;SDS011;50936;51.660;5.616;2023-09-08T04:04:28;11.13;;;6.63;;
64543;SDS011;50936;51.660;5.616;2023-09-08T04:07:15;10.27;;;6.70;;
64543;SDS011;50936;51.660;5.616;2023-09-08T04:10:03;8.00;;;5.85;;
64543;SDS011;50936;51.660;5.616;2023-09-08T04:12:50;7.65;;;5.70;;
64543;SDS011;50936;51.660;5.616;2023-09-08T04:15:39;8.80;;;6.80;;
64543;SDS011;50936;51.660;5.616;2023-09-08T04:18:26;8.38;;;5.70;;
64543;SDS011;50936;51.660;5.616;2023-09-08T04:21:14;7.07;;;5.25;;
64543;SDS011;50936;51.660;5.616;2023-09-08T04:24:01;8.18;;;5.68;;
64543;SDS011;50936;51.660;5.616;2023-09-08T04:26:48;8.20;;;5.78;;
64543;SDS011;50936;51.660;5.616;2023-09-08T04:29:36;8.18;;;6.50;;
64543;SDS011;50936;51.660;5.616;2023-09-08T04:32:23;10.13;;;6.78;;
64543;SDS011;50936;51.660;5.616;2023-09-08T04:35:10;13.52;;;8.10;;
64543;SDS011;50936;51.660;5.616;2023-09-08T04:37:58;12.85;;;7.85;;
64543;SDS011;50936;51.660;5.616;2023-09-08T04:40:49;11.80;;;8.25;;
64543;SDS011;50936;51.660;5.616;2023-09-08T04:43:37;13.85;;;7.88;;
64543;SDS011;50936;51.660;5.616;2023-09-08T04:46:25;11.18;;;7.45;;
64543;SDS011;50936;51.660;5.616;2023-09-08T04:49:12;11.93;;;8.15;;
64543;SDS011;50936;51.660;5.616;2023-09-08T04:51:59;12.35;;;7.85;;
64543;SDS011;50936;51.660;5.616;2023-09-08T04:54:48;10.93;;;7.90;;
64543;SDS011;50936;51.660;5.616;2023-09-08T04:57:35;15.48;;;7.70;;
64543;SDS011;50936;51.660;5.616;2023-09-08T05:00:23;11.00;;;8.02;;
64543;SDS011;50936;51.660;5.616;2023-09-08T05:03:11;13.85;;;8.00;;
64543;SDS011;50936;51.660;5.616;2023-09-08T05:05:58;13.35;;;8.70;;
64543;SDS011;50936;51.660;5.616;2023-09-08T05:08:46;11.70;;;8.43;;
64543;SDS011;50936;51.660;5.616;2023-09-08T05:11:34;10.77;;;8.15;;
64543;SDS011;50936;51.660;5.616;2023-09-08T05:14:22;13.15;;;8.20;;
64543;SDS011;50936;51.660;5.616;2023-09-08T05:17:12;12.40;;;8.68;;
64543;SDS011;50936;51.660;5.616;2023-09-08T05:19:59;12.85;;;8.63;;
64543;SDS011;50936;51.660;5.616;2023-09-08T05:22:47;12.73;;;8.50;;
64543;SDS011;50936;51.660;5.616;2023-09-08T05:25:34;12.35;;;9.13;;
64543;SDS011;50936;51.660;5.616;2023-09-08T05:28:22;13.00;;;8.32;;
64543;SDS011;50936;51.660;5.616;2023-09-08T05:31:09;14.68;;;8.25;;
64543;SDS011;50936;51.660;5.616;2023-09-08T05:33:57;12.82;;;8.93;;
64543;SDS011;50936;51.660;5.616;2023-09-08T05:36:45;17.15;;;8.63;;
64543;SDS011;50936;51.660;5.616;2023-09-08T05:39:32;11.43;;;8.25;;
64543;SDS011;50936;51.660;5.616;2023-09-08T05:42:19;12.90;;;9.45;;
64543;SDS011;50936;51.660;5.616;2023-09-08T05:45:07;12.65;;;9.02;;
64543;SDS011;50936;51.660;5.616;2023-09-08T05:47:54;12.90;;;8.82;;
64543;SDS011;50936;51.660;5.616;2023-09-08T05:50:42;17.65;;;8.50;;
64543;SDS011;50936;51.660;5.616;2023-09-08T05:53:30;12.00;;;8.63;;
64543;SDS011;50936;51.660;5.616;2023-09-08T05:56:18;14.00;;;9.18;;
64543;SDS011;50936;51.660;5.616;2023-09-08T05:59:06;13.38;;;8.90;;
64543;SDS011;50936;51.660;5.616;2023-09-08T06:01:54;12.63;;;9.02;;
64543;SDS011;50936;51.660;5.616;2023-09-08T06:04:41;11.88;;;8.65;;
64543;SDS011;50936;51.660;5.616;2023-09-08T06:07:28;11.05;;;8.23;;
64543;SDS011;50936;51.660;5.616;2023-09-08T06:10:16;18.17;;;8.85;;
64543;SDS011;50936;51.660;5.616;2023-09-08T06:13:04;12.63;;;9.13;;
64543;SDS011;50936;51.660;5.616;2023-09-08T06:15:52;12.32;;;9.05;;
64543;SDS011;50936;51.660;5.616;2023-09-08T06:18:40;13.75;;;9.05;;
64543;SDS011;50936;51.660;5.616;2023-09-08T06:21:31;15.38;;;8.98;;
64543;SDS011;50936;51.660;5.616;2023-09-08T06:24:19;11.73;;;8.18;;
64543;SDS011;50936;51.660;5.616;2023-09-08T06:27:07;14.65;;;9.30;;
64543;SDS011;50936;51.660;5.616;2023-09-08T06:29:54;14.93;;;9.25;;
64543;SDS011;50936;51.660;5.616;2023-09-08T06:32:43;15.40;;;9.60;;
64543;SDS011;50936;51.660;5.616;2023-09-08T06:35:32;14.02;;;9.00;;
64543;SDS011;50936;51.660;5.616;2023-09-08T06:38:20;17.40;;;9.93;;
64543;SDS011;50936;51.660;5.616;2023-09-08T06:41:09;17.88;;;10.15;;
64543;SDS011;50936;51.660;5.616;2023-09-08T06:43:59;16.75;;;9.93;;
64543;SDS011;50936;51.660;5.616;2023-09-08T06:46:47;18.10;;;10.18;;
64543;SDS011;50936;51.660;5.616;2023-09-08T06:49:35;37.00;;;16.25;;
64543;SDS011;50936;51.660;5.616;2023-09-08T06:52:22;23.77;;;11.48;;
64543;SDS011;50936;51.660;5.616;2023-09-08T06:55:09;16.38;;;11.27;;
64543;SDS011;50936;51.660;5.616;2023-09-08T06:57:57;14.05;;;10.90;;
64543;SDS011;50936;51.660;5.616;2023-09-08T07:00:44;16.80;;;10.70;;
64543;SDS011;50936;51.660;5.616;2023-09-08T07:03:33;16.70;;;11.93;;
64543;SDS011;50936;51.660;5.616;2023-09-08T07:06:26;15.30;;;10.45;;
64543;SDS011;50936;51.660;5.616;2023-09-08T07:09:15;15.40;;;11.07;;
64543;SDS011;50936;51.660;5.616;2023-09-08T07:12:06;16.48;;;10.85;;
64543;SDS011;50936;51.660;5.616;2023-09-08T07:14:53;13.45;;;10.07;;
64543;SDS011;50936;51.660;5.616;2023-09-08T07:17:41;15.45;;;11.15;;
64543;SDS011;50936;51.660;5.616;2023-09-08T07:20:29;14.10;;;9.80;;
64543;SDS011;50936;51.660;5.616;2023-09-08T07:23:17;13.32;;;9.70;;
64543;SDS011;50936;51.660;5.616;2023-09-08T07:26:07;17.88;;;10.75;;
64543;SDS011;50936;51.660;5.616;2023-09-08T07:28:54;15.48;;;9.85;;
64543;SDS011;50936;51.660;5.616;2023-09-08T07:31:42;15.30;;;10.13;;
64543;SDS011;50936;51.660;5.616;2023-09-08T07:34:29;14.90;;;9.90;;
64543;SDS011;50936;51.660;5.616;2023-09-08T07:37:17;15.70;;;9.60;;
64543;SDS011;50936;51.660;5.616;2023-09-08T07:40:04;15.32;;;9.30;;
64543;SDS011;50936;51.660;5.616;2023-09-08T07:42:52;13.55;;;9.57;;
64543;SDS011;50936;51.660;5.616;2023-09-08T07:45:40;17.80;;;10.43;;
64543;SDS011;50936;51.660;5.616;2023-09-08T07:48:27;14.43;;;10.23;;
64543;SDS011;50936;51.660;5.616;2023-09-08T07:51:15;15.07;;;10.95;;
64543;SDS011;50936;51.660;5.616;2023-09-08T07:54:02;16.27;;;11.43;;
64543;SDS011;50936;51.660;5.616;2023-09-08T07:56:51;16.15;;;10.88;;
64543;SDS011;50936;51.660;5.616;2023-09-08T07:59:38;18.10;;;10.00;;
64543;SDS011;50936;51.660;5.616;2023-09-08T08:02:25;15.60;;;10.27;;
64543;SDS011;50936;51.660;5.616;2023-09-08T08:05:12;18.38;;;12.82;;
64543;SDS011;50936;51.660;5.616;2023-09-08T08:08:00;15.57;;;10.60;;
64543;SDS011;50936;51.660;5.616;2023-09-08T08:10:47;16.42;;;11.75;;
64543;SDS011;50936;51.660;5.616;2023-09-08T08:13:34;15.07;;;10.38;;
64543;SDS011;50936;51.660;5.616;2023-09-08T08:16:21;16.33;;;10.68;;
64543;SDS011;50936;51.660;5.616;2023-09-08T08:19:09;16.17;;;11.45;;
64543;SDS011;50936;51.660;5.616;2023-09-08T08:21:56;15.13;;;11.50;;
64543;SDS011;50936;51.660;5.616;2023-09-08T08:24:45;20.58;;;12.00;;
64543;SDS011;50936;51.660;5.616;2023-09-08T08:27:32;13.68;;;9.95;;
64543;SDS011;50936;51.660;5.616;2023-09-08T08:30:19;9.65;;;7.40;;
64543;SDS011;50936;51.660;5.616;2023-09-08T08:33:07;11.85;;;6.68;;
64543;SDS011;50936;51.660;5.616;2023-09-08T08:35:54;10.55;;;7.30;;
64543;SDS011;50936;51.660;5.616;2023-09-08T08:38:41;10.25;;;6.97;;
64543;SDS011;50936;51.660;5.616;2023-09-08T08:41:28;10.23;;;7.00;;
64543;SDS011;50936;51.660;5.616;2023-09-08T08:44:16;9.35;;;6.47;;
64543;SDS011;50936;51.660;5.616;2023-09-08T08:47:08;13.32;;;6.78;;
64543;SDS011;50936;51.660;5.616;2023-09-08T08:49:58;11.55;;;7.10;;
64543;SDS011;50936;51.660;5.616;2023-09-08T08:52:47;10.35;;;6.78;;
64543;SDS011;50936;51.660;5.616;2023-09-08T08:55:34;10.10;;;5.80;;
64543;SDS011;50936;51.660;5.616;2023-09-08T08:58:22;8.65;;;6.28;;
64543;SDS011;50936;51.660;5.616;2023-09-08T09:01:13;7.80;;;5.75;;
64543;SDS011;50936;51.660;5.616;2023-09-08T09:04:05;7.43;;;5.70;;
64543;SDS011;50936;51.660;5.616;2023-09-08T09:06:53;10.43;;;6.70;;
64543;SDS011;50936;51.660;5.616;2023-09-08T09:09:41;11.23;;;6.50;;
64543;SDS011;50936;51.660;5.616;2023-09-08T09:12:28;10.73;;;6.35;;
64543;SDS011;50936;51.660;5.616;2023-09-08T09:15:16;9.73;;;6.85;;
64543;SDS011;50936;51.660;5.616;2023-09-08T09:18:19;8.73;;;6.55;;
64543;SDS011;50936;51.660;5.616;2023-09-08T09:21:06;10.15;;;7.00;;
64543;SDS011;50936;51.660;5.616;2023-09-08T09:23:54;11.50;;;6.78;;
64543;SDS011;50936;51.660;5.616;2023-09-08T09:26:43;9.13;;;6.22;;
64543;SDS011;50936;51.660;5.616;2023-09-08T09:29:30;8.98;;;6.57;;
64543;SDS011;50936;51.660;5.616;2023-09-08T09:32:22;9.65;;;6.75;;
64543;SDS011;50936;51.660;5.616;2023-09-08T09:35:12;10.40;;;6.35;;
64543;SDS011;50936;51.660;5.616;2023-09-08T09:37:59;9.82;;;6.65;;
64543;SDS011;50936;51.660;5.616;2023-09-08T09:40:46;8.60;;;6.45;;
64543;SDS011;50936;51.660;5.616;2023-09-08T09:43:35;9.07;;;6.93;;
64543;SDS011;50936;51.660;5.616;2023-09-08T09:46:23;9.73;;;6.68;;
64543;SDS011;50936;51.660;5.616;2023-09-08T09:52:06;10.82;;;6.55;;
64543;SDS011;50936;51.660;5.616;2023-09-08T09:54:53;11.98;;;7.25;;
64543;SDS011;50936;51.660;5.616;2023-09-08T09:57:43;9.70;;;6.78;;
64543;SDS011;50936;51.660;5.616;2023-09-08T10:00:30;10.80;;;7.45;;
64543;SDS011;50936;51.660;5.616;2023-09-08T10:03:21;9.35;;;6.95;;
64543;SDS011;50936;51.660;5.616;2023-09-08T10:06:11;8.07;;;6.32;;
64543;SDS011;50936;51.660;5.616;2023-09-08T10:09:02;10.30;;;7.20;;
64543;SDS011;50936;51.660;5.616;2023-09-08T10:11:55;10.65;;;6.63;;
64543;SDS011;50936;51.660;5.616;2023-09-08T10:14:50;9.65;;;6.72;;
64543;SDS011;50936;51.660;5.616;2023-09-08T10:17:41;9.63;;;7.00;;
64543;SDS011;50936;51.660;5.616;2023-09-08T10:20:33;10.85;;;7.13;;
64543;SDS011;50936;51.660;5.616;2023-09-08T10:23:33;13.65;;;6.55;;
64543;SDS011;50936;51.660;5.616;2023-09-08T10:26:34;9.63;;;6.95;;
64543;SDS011;50936;51.660;5.616;2023-09-08T10:29:26;8.80;;;6.38;;
64543;SDS011;50936;51.660;5.616;2023-09-08T10:32:14;13.27;;;7.05;;
64543;SDS011;50936;51.660;5.616;2023-09-08T10:35:03;11.05;;;7.60;;
64543;SDS011;50936;51.660;5.616;2023-09-08T10:38:20;14.48;;;8.98;;
64543;SDS011;50936;51.660;5.616;2023-09-08T10:44:06;49.42;;;22.95;;
64543;SDS011;50936;51.660;5.616;2023-09-08T10:46:55;110.65;;;49.78;;
64543;SDS011;50936;51.660;5.616;2023-09-08T10:49:44;170.50;;;81.68;;
64543;SDS011;50936;51.660;5.616;2023-09-08T10:52:32;176.95;;;90.20;;
64543;SDS011;50936;51.660;5.616;2023-09-08T10:55:24;178.95;;;94.78;;
64543;SDS011;50936;51.660;5.616;2023-09-08T10:58:29;168.85;;;88.45;;
64543;SDS011;50936;51.660;5.616;2023-09-08T11:01:20;181.05;;;91.43;;
64543;SDS011;50936;51.660;5.616;2023-09-08T11:04:14;163.65;;;85.78;;
64543;SDS011;50936;51.660;5.616;2023-09-08T11:07:06;170.13;;;90.18;;
64543;SDS011;50936;51.660;5.616;2023-09-08T11:09:53;180.48;;;91.20;;
64543;SDS011;50936;51.660;5.616;2023-09-08T11:12:40;173.00;;;90.97;;
64543;SDS011;50936;51.660;5.616;2023-09-08T11:15:28;164.77;;;88.05;;
64543;SDS011;50936;51.660;5.616;2023-09-08T11:18:15;170.85;;;91.22;;
64543;SDS011;50936;51.660;5.616;2023-09-08T11:21:03;167.20;;;88.63;;
64543;SDS011;50936;51.660;5.616;2023-09-08T11:23:54;162.88;;;86.35;;
64543;SDS011;50936;51.660;5.616;2023-09-08T11:26:42;159.95;;;83.78;;
64543;SDS011;50936;51.660;5.616;2023-09-08T11:29:33;161.00;;;83.93;;
64543;SDS011;50936;51.660;5.616;2023-09-08T11:32:20;152.00;;;81.90;;
64543;SDS011;50936;51.660;5.616;2023-09-08T11:35:09;142.45;;;75.65;;
64543;SDS011;50936;51.660;5.616;2023-09-08T11:37:58;121.90;;;63.22;;
64543;SDS011;50936;51.660;5.616;2023-09-08T11:40:47;109.78;;;57.20;;
64543;SDS011;50936;51.660;5.616;2023-09-08T11:43:36;129.82;;;68.47;;
64543;SDS011;50936;51.660;5.616;2023-09-08T11:46:24;110.90;;;58.55;;
64543;SDS011;50936;51.660;5.616;2023-09-08T11:49:13;100.78;;;49.70;;
64543;SDS011;50936;51.660;5.616;2023-09-08T11:52:00;108.03;;;55.63;;
64543;SDS011;50936;51.660;5.616;2023-09-08T11:54:47;105.03;;;51.95;;
64543;SDS011;50936;51.660;5.616;2023-09-08T11:57:52;106.95;;;53.97;;
64543;SDS011;50936;51.660;5.616;2023-09-08T12:00:44;103.90;;;55.13;;
64543;SDS011;50936;51.660;5.616;2023-09-08T12:03:34;111.18;;;56.58;;
64543;SDS011;50936;51.660;5.616;2023-09-08T12:06:27;106.35;;;56.83;;
64543;SDS011;50936;51.660;5.616;2023-09-08T12:09:15;108.10;;;53.63;;
64543;SDS011;50936;51.660;5.616;2023-09-08T12:12:03;101.72;;;51.60;;
64543;SDS011;50936;51.660;5.616;2023-09-08T12:14:57;96.97;;;50.95;;
64543;SDS011;50936;51.660;5.616;2023-09-08T12:17:47;103.03;;;53.08;;
64543;SDS011;50936;51.660;5.616;2023-09-08T12:20:37;105.40;;;54.92;;
64543;SDS011;50936;51.660;5.616;2023-09-08T12:23:26;96.68;;;51.35;;
64543;SDS011;50936;51.660;5.616;2023-09-08T12:26:13;107.03;;;53.63;;
64543;SDS011;50936;51.660;5.616;2023-09-08T12:29:00;100.07;;;52.90;;
64543;SDS011;50936;51.660;5.616;2023-09-08T12:31:58;100.32;;;52.45;;
64543;SDS011;50936;51.660;5.616;2023-09-08T12:34:45;98.63;;;52.30;;
64543;SDS011;50936;51.660;5.616;2023-09-08T12:37:33;100.18;;;50.63;;
64543;SDS011;50936;51.660;5.616;2023-09-08T12:40:20;98.53;;;53.13;;
64543;SDS011;50936;51.660;5.616;2023-09-08T12:43:08;94.57;;;51.38;;
64543;SDS011;50936;51.660;5.616;2023-09-08T12:46:12;91.07;;;51.47;;
64543;SDS011;50936;51.660;5.616;2023-09-08T12:49:00;97.90;;;52.05;;
64543;SDS011;50936;51.660;5.616;2023-09-08T12:51:47;98.40;;;49.58;;
64543;SDS011;50936;51.660;5.616;2023-09-08T12:54:34;92.30;;;49.83;;
64543;SDS011;50936;51.660;5.616;2023-09-08T12:57:22;94.97;;;49.45;;
64543;SDS011;50936;51.660;5.616;2023-09-08T13:00:09;92.60;;;49.38;;
64543;SDS011;50936;51.660;5.616;2023-09-08T13:02:57;90.18;;;47.67;;
64543;SDS011;50936;51.660;5.616;2023-09-08T13:05:45;89.97;;;46.25;;
64543;SDS011;50936;51.660;5.616;2023-09-08T13:08:32;93.47;;;48.45;;
64543;SDS011;50936;51.660;5.616;2023-09-08T13:11:20;87.28;;;47.75;;
64543;SDS011;50936;51.660;5.616;2023-09-08T13:14:08;91.45;;;47.67;;
64543;SDS011;50936;51.660;5.616;2023-09-08T13:16:55;85.32;;;44.10;;
64543;SDS011;50936;51.660;5.616;2023-09-08T13:19:44;86.55;;;45.90;;
64543;SDS011;50936;51.660;5.616;2023-09-08T13:22:31;84.07;;;45.80;;
64543;SDS011;50936;51.660;5.616;2023-09-08T13:25:19;87.35;;;45.47;;
64543;SDS011;50936;51.660;5.616;2023-09-08T13:28:06;88.65;;;45.33;;
64543;SDS011;50936;51.660;5.616;2023-09-08T13:30:53;85.32;;;44.65;;
64543;SDS011;50936;51.660;5.616;2023-09-08T13:33:41;81.78;;;44.92;;
64543;SDS011;50936;51.660;5.616;2023-09-08T13:36:28;83.43;;;44.20;;
64543;SDS011;50936;51.660;5.616;2023-09-08T13:39:15;79.75;;;42.97;;
64543;SDS011;50936;51.660;5.616;2023-09-08T13:42:02;79.50;;;43.75;;
64543;SDS011;50936;51.660;5.616;2023-09-08T13:44:50;78.57;;;41.40;;
64543;SDS011;50936;51.660;5.616;2023-09-08T13:47:37;78.95;;;42.72;;
64543;SDS011;50936;51.660;5.616;2023-09-08T13:50:26;77.30;;;41.70;;
64543;SDS011;50936;51.660;5.616;2023-09-08T13:53:13;75.47;;;41.50;;
64543;SDS011;50936;51.660;5.616;2023-09-08T13:56:01;70.57;;;38.90;;
64543;SDS011;50936;51.660;5.616;2023-09-08T13:58:55;73.38;;;40.20;;
64543;SDS011;50936;51.660;5.616;2023-09-08T14:01:43;73.88;;;40.60;;
64543;SDS011;50936;51.660;5.616;2023-09-08T14:04:32;74.45;;;40.42;;
64543;SDS011;50936;51.660;5.616;2023-09-08T14:07:23;70.45;;;38.65;;
64543;SDS011;50936;51.660;5.616;2023-09-08T14:10:18;69.50;;;38.50;;
64543;SDS011;50936;51.660;5.616;2023-09-08T14:13:23;65.15;;;37.35;;
64543;SDS011;50936;51.660;5.616;2023-09-08T14:16:11;71.82;;;37.92;;
64543;SDS011;50936;51.660;5.616;2023-09-08T14:18:59;64.20;;;35.85;;
64543;SDS011;50936;51.660;5.616;2023-09-08T14:21:46;65.68;;;35.78;;
64543;SDS011;50936;51.660;5.616;2023-09-08T14:24:33;63.78;;;35.92;;
64543;SDS011;50936;51.660;5.616;2023-09-08T14:27:21;64.18;;;35.80;;
64543;SDS011;50936;51.660;5.616;2023-09-08T14:30:08;66.57;;;35.35;;
64543;SDS011;50936;51.660;5.616;2023-09-08T14:32:56;63.35;;;35.88;;
64543;SDS011;50936;51.660;5.616;2023-09-08T14:35:43;65.15;;;34.65;;
64543;SDS011;50936;51.660;5.616;2023-09-08T14:38:32;63.83;;;35.47;;
64543;SDS011;50936;51.660;5.616;2023-09-08T14:41:19;61.50;;;34.08;;
64543;SDS011;50936;51.660;5.616;2023-09-08T14:44:07;61.50;;;34.80;;
64543;SDS011;50936;51.660;5.616;2023-09-08T14:46:54;59.30;;;35.15;;
64543;SDS011;50936;51.660;5.616;2023-09-08T14:49:41;58.60;;;32.75;;
64543;SDS011;50936;51.660;5.616;2023-09-08T14:52:29;54.78;;;32.55;;
64543;SDS011;50936;51.660;5.616;2023-09-08T14:55:16;55.22;;;31.67;;
64543;SDS011;50936;51.660;5.616;2023-09-08T14:58:03;56.08;;;32.47;;
64543;SDS011;50936;51.660;5.616;2023-09-08T15:00:51;58.78;;;32.22;;
64543;SDS011;50936;51.660;5.616;2023-09-08T15:03:38;60.92;;;33.90;;
64543;SDS011;50936;51.660;5.616;2023-09-08T15:06:26;60.03;;;33.83;;
64543;SDS011;50936;51.660;5.616;2023-09-08T15:09:14;58.58;;;33.22;;
64543;SDS011;50936;51.660;5.616;2023-09-08T15:12:01;59.25;;;32.80;;
64543;SDS011;50936;51.660;5.616;2023-09-08T15:14:49;54.25;;;31.55;;
64543;SDS011;50936;51.660;5.616;2023-09-08T15:17:36;57.17;;;32.42;;
64543;SDS011;50936;51.660;5.616;2023-09-08T15:20:23;51.90;;;29.92;;
64543;SDS011;50936;51.660;5.616;2023-09-08T15:23:11;51.47;;;29.90;;
64543;SDS011;50936;51.660;5.616;2023-09-08T15:25:58;49.70;;;28.88;;
64543;SDS011;50936;51.660;5.616;2023-09-08T15:28:45;49.75;;;29.27;;
64543;SDS011;50936;51.660;5.616;2023-09-08T15:31:32;50.40;;;29.50;;
64543;SDS011;50936;51.660;5.616;2023-09-08T15:34:20;49.78;;;28.30;;
64543;SDS011;50936;51.660;5.616;2023-09-08T15:37:07;46.97;;;28.63;;
64543;SDS011;50936;51.660;5.616;2023-09-08T15:39:54;51.00;;;29.00;;
64543;SDS011;50936;51.660;5.616;2023-09-08T15:42:42;47.63;;;28.30;;
64543;SDS011;50936;51.660;5.616;2023-09-08T15:45:30;50.15;;;29.27;;
64543;SDS011;50936;51.660;5.616;2023-09-08T15:48:17;49.78;;;28.23;;
64543;SDS011;50936;51.660;5.616;2023-09-08T15:51:05;48.38;;;27.25;;
64543;SDS011;50936;51.660;5.616;2023-09-08T15:53:55;44.95;;;27.00;;
64543;SDS011;50936;51.660;5.616;2023-09-08T15:56:43;46.13;;;26.98;;
64543;SDS011;50936;51.660;5.616;2023-09-08T15:59:32;44.55;;;27.48;;
64543;SDS011;50936;51.660;5.616;2023-09-08T16:02:20;47.72;;;27.90;;
64543;SDS011;50936;51.660;5.616;2023-09-08T16:05:07;48.65;;;28.38;;
64543;SDS011;50936;51.660;5.616;2023-09-08T16:07:54;47.13;;;27.77;;
64543;SDS011;50936;51.660;5.616;2023-09-08T16:10:41;45.20;;;27.13;;
64543;SDS011;50936;51.660;5.616;2023-09-08T16:13:30;47.05;;;27.23;;
64543;SDS011;50936;51.660;5.616;2023-09-08T16:16:18;45.65;;;26.33;;
64543;SDS011;50936;51.660;5.616;2023-09-08T16:19:05;43.72;;;26.30;;
64543;SDS011;50936;51.660;5.616;2023-09-08T16:21:53;41.38;;;25.73;;
64543;SDS011;50936;51.660;5.616;2023-09-08T16:24:40;42.42;;;25.90;;
64543;SDS011;50936;51.660;5.616;2023-09-08T16:27:27;43.65;;;24.83;;
64543;SDS011;50936;51.660;5.616;2023-09-08T16:30:15;43.55;;;26.30;;
64543;SDS011;50936;51.660;5.616;2023-09-08T16:33:02;43.47;;;25.08;;
64543;SDS011;50936;51.660;5.616;2023-09-08T16:35:49;41.30;;;24.58;;
64543;SDS011;50936;51.660;5.616;2023-09-08T16:38:36;43.20;;;25.85;;
64543;SDS011;50936;51.660;5.616;2023-09-08T16:41:24;41.47;;;24.60;;
64543;SDS011;50936;51.660;5.616;2023-09-08T16:44:11;42.92;;;24.92;;
64543;SDS011;50936;51.660;5.616;2023-09-08T16:46:58;42.17;;;25.52;;